sensor_id;sensor_type;location;lat;lon;timestamp;P1;durP1;ratioP1;P2;durP2;ratioP2
37641;SDS011;23486;51.956;5.888;2023-07-31T00:00:27;1.90;;;0.22;;
37641;SDS011;23486;51.956;5.888;2023-07-31T00:02:53;1.20;;;0.40;;
37641;SDS011;23486;51.956;5.888;2023-07-31T00:05:19;2.58;;;0.30;;
37641;SDS011;23486;51.956;5.888;2023-07-31T00:07:45;1.02;;;0.32;;
37641;SDS011;23486;51.956;5.888;2023-07-31T00:10:11;1.65;;;0.50;;
37641;SDS011;23486;51.956;5.888;2023-07-31T00:12:37;1.45;;;0.30;;
37641;SDS011;23486;51.956;5.888;2023-07-31T00:15:04;1.73;;;0.40;;
37641;SDS011;23486;51.956;5.888;2023-07-31T00:17:31;1.10;;;0.40;;
37641;SDS011;23486;51.956;5.888;2023-07-31T00:19:56;0.90;;;0.30;;
37641;SDS011;23486;51.956;5.888;2023-07-31T00:22:22;0.98;;;0.30;;
37641;SDS011;23486;51.956;5.888;2023-07-31T00:24:47;1.05;;;0.40;;
37641;SDS011;23486;51.956;5.888;2023-07-31T00:27:13;1.30;;;0.40;;
37641;SDS011;23486;51.956;5.888;2023-07-31T00:29:39;0.85;;;0.35;;
37641;SDS011;23486;51.956;5.888;2023-07-31T00:32:04;1.20;;;0.40;;
37641;SDS011;23486;51.956;5.888;2023-07-31T00:34:31;1.20;;;0.32;;
37641;SDS011;23486;51.956;5.888;2023-07-31T00:36:56;1.60;;;0.30;;
37641;SDS011;23486;51.956;5.888;2023-07-31T00:39:22;1.73;;;0.50;;
37641;SDS011;23486;51.956;5.888;2023-07-31T00:41:47;2.80;;;0.47;;
37641;SDS011;23486;51.956;5.888;2023-07-31T00:44:13;2.95;;;0.80;;
37641;SDS011;23486;51.956;5.888;2023-07-31T00:46:38;4.38;;;1.10;;
37641;SDS011;23486;51.956;5.888;2023-07-31T00:49:04;5.53;;;1.77;;
37641;SDS011;23486;51.956;5.888;2023-07-31T00:51:30;7.88;;;2.08;;
37641;SDS011;23486;51.956;5.888;2023-07-31T00:53:56;7.70;;;2.55;;
37641;SDS011;23486;51.956;5.888;2023-07-31T00:56:23;12.25;;;3.67;;
37641;SDS011;23486;51.956;5.888;2023-07-31T00:58:50;11.73;;;4.10;;
37641;SDS011;23486;51.956;5.888;2023-07-31T01:01:15;18.73;;;5.75;;
37641;SDS011;23486;51.956;5.888;2023-07-31T01:03:41;20.58;;;7.07;;
37641;SDS011;23486;51.956;5.888;2023-07-31T01:12:04;29.27;;;8.68;;
37641;SDS011;23486;51.956;5.888;2023-07-31T01:14:33;27.77;;;9.43;;
37641;SDS011;23486;51.956;5.888;2023-07-31T01:16:59;26.75;;;9.13;;
37641;SDS011;23486;51.956;5.888;2023-07-31T01:19:25;22.90;;;9.45;;
37641;SDS011;23486;51.956;5.888;2023-07-31T01:27:41;30.17;;;10.77;;
37641;SDS011;23486;51.956;5.888;2023-07-31T01:30:16;20.40;;;9.07;;
37641;SDS011;23486;51.956;5.888;2023-07-31T01:32:44;24.88;;;9.38;;
37641;SDS011;23486;51.956;5.888;2023-07-31T01:35:12;18.20;;;8.20;;
37641;SDS011;23486;51.956;5.888;2023-07-31T01:37:38;28.00;;;9.25;;
37641;SDS011;23486;51.956;5.888;2023-07-31T01:40:05;20.23;;;8.40;;
37641;SDS011;23486;51.956;5.888;2023-07-31T01:42:31;23.80;;;8.77;;
37641;SDS011;23486;51.956;5.888;2023-07-31T01:44:57;23.98;;;8.13;;
37641;SDS011;23486;51.956;5.888;2023-07-31T01:47:22;25.27;;;8.57;;
37641;SDS011;23486;51.956;5.888;2023-07-31T01:49:48;29.15;;;9.27;;
37641;SDS011;23486;51.956;5.888;2023-07-31T01:52:14;22.95;;;7.82;;
37641;SDS011;23486;51.956;5.888;2023-07-31T01:54:40;21.60;;;8.32;;
37641;SDS011;23486;51.956;5.888;2023-07-31T01:57:05;23.20;;;8.93;;
37641;SDS011;23486;51.956;5.888;2023-07-31T01:59:31;18.83;;;7.95;;
37641;SDS011;23486;51.956;5.888;2023-07-31T02:01:57;22.33;;;8.02;;
37641;SDS011;23486;51.956;5.888;2023-07-31T02:04:23;24.13;;;8.13;;
37641;SDS011;23486;51.956;5.888;2023-07-31T02:06:48;20.83;;;7.90;;
37641;SDS011;23486;51.956;5.888;2023-07-31T02:09:14;21.60;;;8.07;;
37641;SDS011;23486;51.956;5.888;2023-07-31T02:11:39;22.05;;;7.50;;
37641;SDS011;23486;51.956;5.888;2023-07-31T02:14:05;21.05;;;8.50;;
37641;SDS011;23486;51.956;5.888;2023-07-31T02:16:31;25.30;;;9.10;;
37641;SDS011;23486;51.956;5.888;2023-07-31T02:18:56;21.58;;;8.13;;
37641;SDS011;23486;51.956;5.888;2023-07-31T02:21:22;18.17;;;6.82;;
37641;SDS011;23486;51.956;5.888;2023-07-31T02:23:47;18.30;;;7.10;;
37641;SDS011;23486;51.956;5.888;2023-07-31T02:26:13;19.85;;;7.35;;
37641;SDS011;23486;51.956;5.888;2023-07-31T02:28:39;18.30;;;6.25;;
37641;SDS011;23486;51.956;5.888;2023-07-31T02:31:07;19.00;;;7.05;;
37641;SDS011;23486;51.956;5.888;2023-07-31T02:33:33;30.95;;;8.30;;
37641;SDS011;23486;51.956;5.888;2023-07-31T02:35:58;21.38;;;7.25;;
37641;SDS011;23486;51.956;5.888;2023-07-31T02:38:24;18.30;;;7.15;;
37641;SDS011;23486;51.956;5.888;2023-07-31T02:40:50;20.45;;;6.82;;
37641;SDS011;23486;51.956;5.888;2023-07-31T02:43:15;21.50;;;7.43;;
37641;SDS011;23486;51.956;5.888;2023-07-31T02:45:41;20.92;;;6.38;;
37641;SDS011;23486;51.956;5.888;2023-07-31T02:48:06;20.88;;;6.50;;
37641;SDS011;23486;51.956;5.888;2023-07-31T02:50:32;15.15;;;6.05;;
37641;SDS011;23486;51.956;5.888;2023-07-31T02:52:58;23.80;;;7.28;;
37641;SDS011;23486;51.956;5.888;2023-07-31T02:55:24;21.50;;;7.78;;
37641;SDS011;23486;51.956;5.888;2023-07-31T02:57:49;23.77;;;8.40;;
37641;SDS011;23486;51.956;5.888;2023-07-31T03:00:17;22.25;;;7.68;;
37641;SDS011;23486;51.956;5.888;2023-07-31T03:02:42;23.75;;;8.70;;
37641;SDS011;23486;51.956;5.888;2023-07-31T03:05:08;18.25;;;7.63;;
37641;SDS011;23486;51.956;5.888;2023-07-31T03:07:36;25.65;;;8.40;;
37641;SDS011;23486;51.956;5.888;2023-07-31T03:10:05;22.70;;;7.57;;
37641;SDS011;23486;51.956;5.888;2023-07-31T03:12:31;20.88;;;7.75;;
37641;SDS011;23486;51.956;5.888;2023-07-31T03:14:59;22.33;;;7.07;;
37641;SDS011;23486;51.956;5.888;2023-07-31T03:17:28;19.48;;;6.53;;
37641;SDS011;23486;51.956;5.888;2023-07-31T03:19:56;19.20;;;7.57;;
37641;SDS011;23486;51.956;5.888;2023-07-31T03:22:22;20.08;;;6.68;;
37641;SDS011;23486;51.956;5.888;2023-07-31T03:24:48;23.70;;;7.70;;
37641;SDS011;23486;51.956;5.888;2023-07-31T03:27:13;22.67;;;7.63;;
37641;SDS011;23486;51.956;5.888;2023-07-31T03:29:39;21.88;;;7.38;;
37641;SDS011;23486;51.956;5.888;2023-07-31T03:32:05;16.83;;;6.55;;
37641;SDS011;23486;51.956;5.888;2023-07-31T03:34:31;20.35;;;6.57;;
37641;SDS011;23486;51.956;5.888;2023-07-31T03:36:57;21.20;;;6.55;;
37641;SDS011;23486;51.956;5.888;2023-07-31T03:39:23;16.92;;;6.22;;
37641;SDS011;23486;51.956;5.888;2023-07-31T03:41:49;15.70;;;5.43;;
37641;SDS011;23486;51.956;5.888;2023-07-31T03:44:14;20.08;;;6.53;;
37641;SDS011;23486;51.956;5.888;2023-07-31T03:46:40;16.27;;;6.47;;
37641;SDS011;23486;51.956;5.888;2023-07-31T03:49:05;14.95;;;4.90;;
37641;SDS011;23486;51.956;5.888;2023-07-31T03:51:31;19.15;;;6.25;;
37641;SDS011;23486;51.956;5.888;2023-07-31T03:53:56;15.25;;;5.07;;
37641;SDS011;23486;51.956;5.888;2023-07-31T03:56:22;18.60;;;5.72;;
37641;SDS011;23486;51.956;5.888;2023-07-31T03:58:48;18.35;;;5.50;;
37641;SDS011;23486;51.956;5.888;2023-07-31T04:01:13;18.55;;;5.80;;
37641;SDS011;23486;51.956;5.888;2023-07-31T04:03:39;20.02;;;7.13;;
37641;SDS011;23486;51.956;5.888;2023-07-31T04:06:04;16.00;;;6.10;;
37641;SDS011;23486;51.956;5.888;2023-07-31T04:08:32;22.15;;;6.40;;
37641;SDS011;23486;51.956;5.888;2023-07-31T04:10:58;15.90;;;6.15;;
37641;SDS011;23486;51.956;5.888;2023-07-31T04:13:24;16.10;;;5.88;;
37641;SDS011;23486;51.956;5.888;2023-07-31T04:15:52;17.88;;;6.03;;
37641;SDS011;23486;51.956;5.888;2023-07-31T04:18:19;19.10;;;5.30;;
37641;SDS011;23486;51.956;5.888;2023-07-31T04:20:45;16.05;;;5.68;;
37641;SDS011;23486;51.956;5.888;2023-07-31T04:23:11;16.45;;;5.95;;
37641;SDS011;23486;51.956;5.888;2023-07-31T04:25:36;13.93;;;5.18;;
37641;SDS011;23486;51.956;5.888;2023-07-31T04:28:02;19.85;;;6.47;;
37641;SDS011;23486;51.956;5.888;2023-07-31T04:30:28;14.57;;;5.68;;
37641;SDS011;23486;51.956;5.888;2023-07-31T04:32:53;15.45;;;4.75;;
37641;SDS011;23486;51.956;5.888;2023-07-31T04:35:19;16.00;;;4.78;;
37641;SDS011;23486;51.956;5.888;2023-07-31T04:37:44;17.60;;;5.78;;
37641;SDS011;23486;51.956;5.888;2023-07-31T04:40:13;15.95;;;5.32;;
37641;SDS011;23486;51.956;5.888;2023-07-31T04:42:41;12.98;;;4.65;;
37641;SDS011;23486;51.956;5.888;2023-07-31T04:45:07;12.70;;;4.70;;
37641;SDS011;23486;51.956;5.888;2023-07-31T04:47:33;12.63;;;4.35;;
37641;SDS011;23486;51.956;5.888;2023-07-31T04:49:59;14.52;;;4.88;;
37641;SDS011;23486;51.956;5.888;2023-07-31T04:52:25;14.15;;;4.97;;
37641;SDS011;23486;51.956;5.888;2023-07-31T04:54:50;19.13;;;5.38;;
37641;SDS011;23486;51.956;5.888;2023-07-31T04:57:16;19.05;;;5.72;;
37641;SDS011;23486;51.956;5.888;2023-07-31T04:59:41;17.38;;;5.53;;
37641;SDS011;23486;51.956;5.888;2023-07-31T05:02:08;15.95;;;5.03;;
37641;SDS011;23486;51.956;5.888;2023-07-31T05:04:34;13.32;;;4.68;;
37641;SDS011;23486;51.956;5.888;2023-07-31T05:06:59;16.58;;;5.88;;
37641;SDS011;23486;51.956;5.888;2023-07-31T05:09:25;17.25;;;5.05;;
37641;SDS011;23486;51.956;5.888;2023-07-31T05:11:50;12.48;;;5.32;;
37641;SDS011;23486;51.956;5.888;2023-07-31T05:14:16;14.75;;;5.65;;
37641;SDS011;23486;51.956;5.888;2023-07-31T05:16:45;15.52;;;5.32;;
37641;SDS011;23486;51.956;5.888;2023-07-31T05:19:10;12.55;;;4.72;;
37641;SDS011;23486;51.956;5.888;2023-07-31T05:21:36;17.08;;;4.85;;
37641;SDS011;23486;51.956;5.888;2023-07-31T05:24:02;10.60;;;4.43;;
37641;SDS011;23486;51.956;5.888;2023-07-31T05:26:27;17.75;;;5.88;;
37641;SDS011;23486;51.956;5.888;2023-07-31T05:28:53;14.02;;;5.35;;
37641;SDS011;23486;51.956;5.888;2023-07-31T05:31:19;11.07;;;4.93;;
37641;SDS011;23486;51.956;5.888;2023-07-31T05:33:45;17.63;;;5.45;;
37641;SDS011;23486;51.956;5.888;2023-07-31T05:36:11;14.18;;;4.75;;
37641;SDS011;23486;51.956;5.888;2023-07-31T05:38:37;12.75;;;4.90;;
37641;SDS011;23486;51.956;5.888;2023-07-31T05:41:02;12.98;;;4.90;;
37641;SDS011;23486;51.956;5.888;2023-07-31T05:43:29;16.02;;;4.97;;
37641;SDS011;23486;51.956;5.888;2023-07-31T05:45:55;13.45;;;5.38;;
37641;SDS011;23486;51.956;5.888;2023-07-31T05:48:21;13.73;;;5.13;;
37641;SDS011;23486;51.956;5.888;2023-07-31T05:50:46;14.10;;;4.28;;
37641;SDS011;23486;51.956;5.888;2023-07-31T05:53:12;14.45;;;4.75;;
37641;SDS011;23486;51.956;5.888;2023-07-31T05:55:38;17.10;;;5.70;;
37641;SDS011;23486;51.956;5.888;2023-07-31T05:58:03;14.63;;;4.97;;
37641;SDS011;23486;51.956;5.888;2023-07-31T06:00:29;12.38;;;4.38;;
37641;SDS011;23486;51.956;5.888;2023-07-31T06:02:54;13.13;;;4.13;;
37641;SDS011;23486;51.956;5.888;2023-07-31T06:05:20;13.27;;;4.72;;
37641;SDS011;23486;51.956;5.888;2023-07-31T06:07:46;12.55;;;4.13;;
37641;SDS011;23486;51.956;5.888;2023-07-31T06:10:11;16.38;;;4.25;;
37641;SDS011;23486;51.956;5.888;2023-07-31T06:12:37;11.48;;;4.13;;
37641;SDS011;23486;51.956;5.888;2023-07-31T06:15:03;12.30;;;4.13;;
37641;SDS011;23486;51.956;5.888;2023-07-31T06:17:29;14.68;;;4.38;;
37641;SDS011;23486;51.956;5.888;2023-07-31T06:19:55;13.25;;;4.97;;
37641;SDS011;23486;51.956;5.888;2023-07-31T06:22:22;13.30;;;4.97;;
37641;SDS011;23486;51.956;5.888;2023-07-31T06:24:47;12.48;;;4.97;;
37641;SDS011;23486;51.956;5.888;2023-07-31T06:27:13;10.77;;;4.28;;
37641;SDS011;23486;51.956;5.888;2023-07-31T06:29:39;8.73;;;4.03;;
37641;SDS011;23486;51.956;5.888;2023-07-31T06:32:04;11.07;;;3.95;;
37641;SDS011;23486;51.956;5.888;2023-07-31T06:34:30;15.23;;;4.25;;
37641;SDS011;23486;51.956;5.888;2023-07-31T06:36:56;8.70;;;3.85;;
37641;SDS011;23486;51.956;5.888;2023-07-31T06:39:22;12.35;;;4.40;;
37641;SDS011;23486;51.956;5.888;2023-07-31T06:41:47;11.45;;;3.72;;
37641;SDS011;23486;51.956;5.888;2023-07-31T06:44:13;11.30;;;4.57;;
37641;SDS011;23486;51.956;5.888;2023-07-31T06:46:39;10.77;;;5.00;;
37641;SDS011;23486;51.956;5.888;2023-07-31T06:49:04;10.10;;;3.75;;
37641;SDS011;23486;51.956;5.888;2023-07-31T06:51:30;9.38;;;4.55;;
37641;SDS011;23486;51.956;5.888;2023-07-31T06:54:00;6.80;;;3.15;;
37641;SDS011;23486;51.956;5.888;2023-07-31T06:56:26;9.00;;;3.65;;
37641;SDS011;23486;51.956;5.888;2023-07-31T06:58:52;5.88;;;2.65;;
37641;SDS011;23486;51.956;5.888;2023-07-31T07:01:18;9.70;;;3.38;;
37641;SDS011;23486;51.956;5.888;2023-07-31T07:03:43;6.88;;;2.22;;
37641;SDS011;23486;51.956;5.888;2023-07-31T07:06:09;6.82;;;2.60;;
37641;SDS011;23486;51.956;5.888;2023-07-31T07:08:35;5.78;;;2.08;;
37641;SDS011;23486;51.956;5.888;2023-07-31T07:11:01;4.63;;;1.95;;
37641;SDS011;23486;51.956;5.888;2023-07-31T07:13:26;7.00;;;2.08;;
37641;SDS011;23486;51.956;5.888;2023-07-31T07:15:52;5.13;;;1.65;;
37641;SDS011;23486;51.956;5.888;2023-07-31T07:18:18;4.80;;;1.20;;
37641;SDS011;23486;51.956;5.888;2023-07-31T07:20:50;4.53;;;1.60;;
37641;SDS011;23486;51.956;5.888;2023-07-31T07:23:17;5.10;;;1.15;;
37641;SDS011;23486;51.956;5.888;2023-07-31T07:25:43;3.90;;;0.90;;
37641;SDS011;23486;51.956;5.888;2023-07-31T07:28:10;3.63;;;0.80;;
37641;SDS011;23486;51.956;5.888;2023-07-31T07:30:36;3.40;;;0.93;;
37641;SDS011;23486;51.956;5.888;2023-07-31T07:33:02;2.35;;;0.82;;
37641;SDS011;23486;51.956;5.888;2023-07-31T07:35:29;2.58;;;0.70;;
37641;SDS011;23486;51.956;5.888;2023-07-31T07:37:55;2.28;;;0.60;;
37641;SDS011;23486;51.956;5.888;2023-07-31T07:40:21;2.80;;;0.52;;
37641;SDS011;23486;51.956;5.888;2023-07-31T07:42:47;2.15;;;0.50;;
37641;SDS011;23486;51.956;5.888;2023-07-31T07:45:13;2.45;;;0.73;;
37641;SDS011;23486;51.956;5.888;2023-07-31T07:47:40;2.03;;;0.50;;
37641;SDS011;23486;51.956;5.888;2023-07-31T07:50:06;2.60;;;0.73;;
37641;SDS011;23486;51.956;5.888;2023-07-31T07:52:32;1.67;;;0.40;;
37641;SDS011;23486;51.956;5.888;2023-07-31T07:54:57;1.42;;;0.40;;
37641;SDS011;23486;51.956;5.888;2023-07-31T07:57:23;2.70;;;0.60;;
37641;SDS011;23486;51.956;5.888;2023-07-31T07:59:49;2.10;;;0.40;;
37641;SDS011;23486;51.956;5.888;2023-07-31T08:02:14;1.52;;;0.47;;
37641;SDS011;23486;51.956;5.888;2023-07-31T08:04:40;2.20;;;0.40;;
37641;SDS011;23486;51.956;5.888;2023-07-31T08:07:05;1.75;;;0.57;;
37641;SDS011;23486;51.956;5.888;2023-07-31T08:09:31;3.42;;;0.50;;
37641;SDS011;23486;51.956;5.888;2023-07-31T08:11:56;3.15;;;0.50;;
37641;SDS011;23486;51.956;5.888;2023-07-31T08:14:27;2.75;;;0.65;;
37641;SDS011;23486;51.956;5.888;2023-07-31T08:16:52;1.70;;;0.65;;
37641;SDS011;23486;51.956;5.888;2023-07-31T08:19:18;2.03;;;0.70;;
37641;SDS011;23486;51.956;5.888;2023-07-31T08:21:44;2.92;;;0.65;;
37641;SDS011;23486;51.956;5.888;2023-07-31T08:24:09;5.50;;;0.70;;
37641;SDS011;23486;51.956;5.888;2023-07-31T08:26:35;2.33;;;0.75;;
37641;SDS011;23486;51.956;5.888;2023-07-31T08:29:00;2.70;;;0.70;;
37641;SDS011;23486;51.956;5.888;2023-07-31T08:31:26;2.60;;;0.88;;
37641;SDS011;23486;51.956;5.888;2023-07-31T08:33:54;3.20;;;1.00;;
37641;SDS011;23486;51.956;5.888;2023-07-31T08:36:20;3.05;;;0.95;;
37641;SDS011;23486;51.956;5.888;2023-07-31T08:38:46;3.30;;;1.33;;
37641;SDS011;23486;51.956;5.888;2023-07-31T08:41:12;3.03;;;1.02;;
37641;SDS011;23486;51.956;5.888;2023-07-31T08:43:38;3.33;;;1.50;;
37641;SDS011;23486;51.956;5.888;2023-07-31T08:46:04;3.03;;;1.20;;
37641;SDS011;23486;51.956;5.888;2023-07-31T08:48:30;3.92;;;1.50;;
37641;SDS011;23486;51.956;5.888;2023-07-31T08:50:57;4.63;;;1.63;;
37641;SDS011;23486;51.956;5.888;2023-07-31T08:53:23;3.28;;;1.15;;
37641;SDS011;23486;51.956;5.888;2023-07-31T08:55:49;4.03;;;2.22;;
37641;SDS011;23486;51.956;5.888;2023-07-31T08:58:17;5.13;;;2.08;;
37641;SDS011;23486;51.956;5.888;2023-07-31T09:00:43;3.40;;;1.70;;
37641;SDS011;23486;51.956;5.888;2023-07-31T09:03:13;4.32;;;1.98;;
37641;SDS011;23486;51.956;5.888;2023-07-31T09:05:41;4.55;;;1.90;;
37641;SDS011;23486;51.956;5.888;2023-07-31T09:08:09;4.22;;;1.77;;
37641;SDS011;23486;51.956;5.888;2023-07-31T09:10:42;3.53;;;1.75;;
37641;SDS011;23486;51.956;5.888;2023-07-31T09:13:09;3.75;;;1.48;;
37641;SDS011;23486;51.956;5.888;2023-07-31T09:15:35;3.28;;;1.48;;
37641;SDS011;23486;51.956;5.888;2023-07-31T09:18:02;4.28;;;2.00;;
37641;SDS011;23486;51.956;5.888;2023-07-31T09:20:29;4.22;;;2.20;;
37641;SDS011;23486;51.956;5.888;2023-07-31T09:22:56;6.68;;;2.97;;
37641;SDS011;23486;51.956;5.888;2023-07-31T09:25:46;5.60;;;2.95;;
37641;SDS011;23486;51.956;5.888;2023-07-31T09:28:12;4.43;;;3.17;;
37641;SDS011;23486;51.956;5.888;2023-07-31T09:30:48;3.60;;;2.60;;
37641;SDS011;23486;51.956;5.888;2023-07-31T09:33:15;5.88;;;3.08;;
37641;SDS011;23486;51.956;5.888;2023-07-31T09:35:41;4.97;;;3.00;;
37641;SDS011;23486;51.956;5.888;2023-07-31T09:38:08;6.68;;;4.05;;
37641;SDS011;23486;51.956;5.888;2023-07-31T09:40:35;6.88;;;3.80;;
37641;SDS011;23486;51.956;5.888;2023-07-31T09:43:03;5.82;;;4.50;;
37641;SDS011;23486;51.956;5.888;2023-07-31T09:45:33;6.65;;;4.43;;
37641;SDS011;23486;51.956;5.888;2023-07-31T09:48:06;6.75;;;4.75;;
37641;SDS011;23486;51.956;5.888;2023-07-31T09:50:34;8.35;;;5.03;;
37641;SDS011;23486;51.956;5.888;2023-07-31T09:53:07;10.77;;;5.60;;
37641;SDS011;23486;51.956;5.888;2023-07-31T09:55:34;6.60;;;5.03;;
37641;SDS011;23486;51.956;5.888;2023-07-31T09:58:04;6.38;;;5.20;;
37641;SDS011;23486;51.956;5.888;2023-07-31T10:00:31;7.88;;;5.45;;
37641;SDS011;23486;51.956;5.888;2023-07-31T10:03:00;8.00;;;5.70;;
37641;SDS011;23486;51.956;5.888;2023-07-31T10:05:39;8.18;;;6.53;;
37641;SDS011;23486;51.956;5.888;2023-07-31T10:08:07;6.90;;;5.20;;
37641;SDS011;23486;51.956;5.888;2023-07-31T10:10:35;8.15;;;6.10;;
37641;SDS011;23486;51.956;5.888;2023-07-31T10:13:02;7.82;;;6.13;;
37641;SDS011;23486;51.956;5.888;2023-07-31T10:15:29;9.40;;;6.72;;
37641;SDS011;23486;51.956;5.888;2023-07-31T10:17:55;10.15;;;6.63;;
37641;SDS011;23486;51.956;5.888;2023-07-31T10:20:21;8.07;;;6.15;;
37641;SDS011;23486;51.956;5.888;2023-07-31T10:22:47;8.18;;;6.93;;
37641;SDS011;23486;51.956;5.888;2023-07-31T10:25:15;10.90;;;6.78;;
37641;SDS011;23486;51.956;5.888;2023-07-31T10:27:41;10.02;;;7.45;;
37641;SDS011;23486;51.956;5.888;2023-07-31T10:30:17;10.32;;;7.15;;
37641;SDS011;23486;51.956;5.888;2023-07-31T10:32:45;10.90;;;6.93;;
37641;SDS011;23486;51.956;5.888;2023-07-31T10:35:13;7.25;;;6.45;;
37641;SDS011;23486;51.956;5.888;2023-07-31T10:37:41;10.98;;;7.88;;
37641;SDS011;23486;51.956;5.888;2023-07-31T10:42:37;9.85;;;7.65;;
37641;SDS011;23486;51.956;5.888;2023-07-31T10:45:05;9.48;;;6.95;;
37641;SDS011;23486;51.956;5.888;2023-07-31T10:47:42;11.05;;;7.38;;
37641;SDS011;23486;51.956;5.888;2023-07-31T10:50:13;11.95;;;8.15;;
37641;SDS011;23486;51.956;5.888;2023-07-31T10:52:57;9.70;;;6.93;;
37641;SDS011;23486;51.956;5.888;2023-07-31T10:58:00;8.80;;;6.63;;
37641;SDS011;23486;51.956;5.888;2023-07-31T11:00:36;8.82;;;6.18;;
37641;SDS011;23486;51.956;5.888;2023-07-31T11:03:10;6.85;;;5.97;;
37641;SDS011;23486;51.956;5.888;2023-07-31T11:08:23;8.82;;;5.80;;
37641;SDS011;23486;51.956;5.888;2023-07-31T11:10:51;9.00;;;5.90;;
37641;SDS011;23486;51.956;5.888;2023-07-31T11:13:26;6.68;;;5.90;;
37641;SDS011;23486;51.956;5.888;2023-07-31T11:15:52;7.63;;;6.05;;
37641;SDS011;23486;51.956;5.888;2023-07-31T11:18:17;9.68;;;6.15;;
37641;SDS011;23486;51.956;5.888;2023-07-31T11:20:43;6.78;;;4.78;;
37641;SDS011;23486;51.956;5.888;2023-07-31T11:23:09;8.77;;;6.25;;
37641;SDS011;23486;51.956;5.888;2023-07-31T11:25:36;10.75;;;6.10;;
37641;SDS011;23486;51.956;5.888;2023-07-31T11:28:11;7.22;;;6.28;;
37641;SDS011;23486;51.956;5.888;2023-07-31T11:30:38;7.55;;;5.93;;
37641;SDS011;23486;51.956;5.888;2023-07-31T11:33:09;8.00;;;5.68;;
37641;SDS011;23486;51.956;5.888;2023-07-31T11:35:56;7.10;;;5.32;;
37641;SDS011;23486;51.956;5.888;2023-07-31T11:38:22;7.78;;;6.15;;
37641;SDS011;23486;51.956;5.888;2023-07-31T11:40:49;8.02;;;5.93;;
37641;SDS011;23486;51.956;5.888;2023-07-31T11:43:15;8.15;;;5.78;;
37641;SDS011;23486;51.956;5.888;2023-07-31T11:45:47;8.73;;;5.63;;
37641;SDS011;23486;51.956;5.888;2023-07-31T11:48:26;8.23;;;5.72;;
37641;SDS011;23486;51.956;5.888;2023-07-31T11:50:58;12.38;;;6.15;;
37641;SDS011;23486;51.956;5.888;2023-07-31T11:56:06;8.93;;;5.90;;
37641;SDS011;23486;51.956;5.888;2023-07-31T11:58:35;8.35;;;5.68;;
37641;SDS011;23486;51.956;5.888;2023-07-31T12:01:01;7.28;;;4.15;;
37641;SDS011;23486;51.956;5.888;2023-07-31T12:03:27;11.00;;;4.88;;
37641;SDS011;23486;51.956;5.888;2023-07-31T12:05:53;8.18;;;4.55;;
37641;SDS011;23486;51.956;5.888;2023-07-31T12:08:23;7.20;;;3.75;;
37641;SDS011;23486;51.956;5.888;2023-07-31T12:10:50;5.97;;;3.80;;
37641;SDS011;23486;51.956;5.888;2023-07-31T12:13:22;5.57;;;4.00;;
37641;SDS011;23486;51.956;5.888;2023-07-31T12:15:53;7.28;;;4.38;;
37641;SDS011;23486;51.956;5.888;2023-07-31T12:18:21;6.38;;;4.53;;
37641;SDS011;23486;51.956;5.888;2023-07-31T12:20:48;6.10;;;4.15;;
37641;SDS011;23486;51.956;5.888;2023-07-31T12:23:19;7.43;;;4.07;;
37641;SDS011;23486;51.956;5.888;2023-07-31T12:26:12;7.20;;;3.70;;
37641;SDS011;23486;51.956;5.888;2023-07-31T12:28:42;5.53;;;3.72;;
37641;SDS011;23486;51.956;5.888;2023-07-31T12:31:19;6.22;;;3.70;;
37641;SDS011;23486;51.956;5.888;2023-07-31T12:33:48;5.70;;;4.15;;
37641;SDS011;23486;51.956;5.888;2023-07-31T12:36:16;6.72;;;4.72;;
37641;SDS011;23486;51.956;5.888;2023-07-31T12:38:47;6.60;;;4.45;;
37641;SDS011;23486;51.956;5.888;2023-07-31T12:41:14;6.70;;;5.25;;
37641;SDS011;23486;51.956;5.888;2023-07-31T12:43:41;6.90;;;4.18;;
37641;SDS011;23486;51.956;5.888;2023-07-31T12:46:09;7.13;;;5.20;;
37641;SDS011;23486;51.956;5.888;2023-07-31T12:48:36;7.25;;;5.22;;
37641;SDS011;23486;51.956;5.888;2023-07-31T12:51:02;6.43;;;3.90;;
37641;SDS011;23486;51.956;5.888;2023-07-31T12:53:28;7.00;;;4.85;;
37641;SDS011;23486;51.956;5.888;2023-07-31T12:55:55;8.65;;;4.68;;
37641;SDS011;23486;51.956;5.888;2023-07-31T12:58:21;5.95;;;4.50;;
37641;SDS011;23486;51.956;5.888;2023-07-31T13:00:46;6.90;;;4.88;;
37641;SDS011;23486;51.956;5.888;2023-07-31T13:03:12;5.78;;;4.72;;
37641;SDS011;23486;51.956;5.888;2023-07-31T13:05:37;8.90;;;5.35;;
37641;SDS011;23486;51.956;5.888;2023-07-31T13:08:03;7.50;;;5.30;;
37641;SDS011;23486;51.956;5.888;2023-07-31T13:10:29;8.55;;;5.18;;
37641;SDS011;23486;51.956;5.888;2023-07-31T13:12:56;7.13;;;4.95;;
37641;SDS011;23486;51.956;5.888;2023-07-31T13:15:21;7.80;;;4.45;;
37641;SDS011;23486;51.956;5.888;2023-07-31T13:17:48;7.00;;;4.05;;
37641;SDS011;23486;51.956;5.888;2023-07-31T13:20:13;7.82;;;5.85;;
37641;SDS011;23486;51.956;5.888;2023-07-31T13:22:39;9.02;;;5.43;;
37641;SDS011;23486;51.956;5.888;2023-07-31T13:25:05;7.85;;;5.20;;
37641;SDS011;23486;51.956;5.888;2023-07-31T13:27:31;5.70;;;4.80;;
37641;SDS011;23486;51.956;5.888;2023-07-31T13:29:57;5.93;;;4.82;;
37641;SDS011;23486;51.956;5.888;2023-07-31T13:32:22;6.45;;;4.20;;
37641;SDS011;23486;51.956;5.888;2023-07-31T13:34:48;5.28;;;3.78;;
37641;SDS011;23486;51.956;5.888;2023-07-31T13:37:14;5.82;;;4.13;;
37641;SDS011;23486;51.956;5.888;2023-07-31T13:39:40;7.45;;;4.30;;
37641;SDS011;23486;51.956;5.888;2023-07-31T13:42:06;6.68;;;4.63;;
37641;SDS011;23486;51.956;5.888;2023-07-31T13:44:36;6.30;;;3.72;;
37641;SDS011;23486;51.956;5.888;2023-07-31T13:47:01;7.85;;;4.63;;
37641;SDS011;23486;51.956;5.888;2023-07-31T13:49:27;5.32;;;3.10;;
37641;SDS011;23486;51.956;5.888;2023-07-31T13:51:54;6.50;;;3.55;;
37641;SDS011;23486;51.956;5.888;2023-07-31T13:54:19;4.72;;;3.47;;
37641;SDS011;23486;51.956;5.888;2023-07-31T13:56:45;5.00;;;3.45;;
37641;SDS011;23486;51.956;5.888;2023-07-31T13:59:11;6.68;;;4.15;;
37641;SDS011;23486;51.956;5.888;2023-07-31T14:01:37;5.82;;;3.83;;
37641;SDS011;23486;51.956;5.888;2023-07-31T14:04:02;6.50;;;3.17;;
37641;SDS011;23486;51.956;5.888;2023-07-31T14:06:28;8.23;;;4.00;;
37641;SDS011;23486;51.956;5.888;2023-07-31T14:08:54;9.32;;;3.92;;
37641;SDS011;23486;51.956;5.888;2023-07-31T14:11:20;8.38;;;4.47;;
37641;SDS011;23486;51.956;5.888;2023-07-31T14:13:47;7.85;;;4.57;;
37641;SDS011;23486;51.956;5.888;2023-07-31T14:16:12;7.55;;;4.03;;
37641;SDS011;23486;51.956;5.888;2023-07-31T14:18:38;9.52;;;4.35;;
37641;SDS011;23486;51.956;5.888;2023-07-31T14:21:03;7.30;;;4.15;;
37641;SDS011;23486;51.956;5.888;2023-07-31T14:23:29;6.63;;;4.53;;
37641;SDS011;23486;51.956;5.888;2023-07-31T14:25:55;8.02;;;4.13;;
37641;SDS011;23486;51.956;5.888;2023-07-31T14:28:20;8.95;;;4.35;;
37641;SDS011;23486;51.956;5.888;2023-07-31T14:30:46;9.13;;;4.95;;
37641;SDS011;23486;51.956;5.888;2023-07-31T14:33:12;7.93;;;4.10;;
37641;SDS011;23486;51.956;5.888;2023-07-31T14:35:37;8.57;;;3.92;;
37641;SDS011;23486;51.956;5.888;2023-07-31T14:38:03;9.63;;;4.93;;
37641;SDS011;23486;51.956;5.888;2023-07-31T14:40:29;9.88;;;4.88;;
37641;SDS011;23486;51.956;5.888;2023-07-31T14:42:55;9.82;;;4.95;;
37641;SDS011;23486;51.956;5.888;2023-07-31T14:45:20;8.93;;;5.03;;
37641;SDS011;23486;51.956;5.888;2023-07-31T14:47:46;7.00;;;4.30;;
37641;SDS011;23486;51.956;5.888;2023-07-31T14:50:11;7.25;;;3.72;;
37641;SDS011;23486;51.956;5.888;2023-07-31T14:52:37;8.63;;;4.35;;
37641;SDS011;23486;51.956;5.888;2023-07-31T14:55:03;6.65;;;4.10;;
37641;SDS011;23486;51.956;5.888;2023-07-31T14:57:29;8.40;;;4.68;;
37641;SDS011;23486;51.956;5.888;2023-07-31T14:59:54;12.40;;;4.90;;
37641;SDS011;23486;51.956;5.888;2023-07-31T15:02:20;10.13;;;4.53;;